createdAt,value
2018-06-02T00:02:14.034Z,59.80
2018-06-02T00:04:41.539Z,59.80
2018-06-02T00:07:09.812Z,60.10
2018-06-02T00:09:38.104Z,60.30
2018-06-02T00:12:05.624Z,60.20
2018-06-02T00:14:33.172Z,60.40
2018-06-02T00:17:02.202Z,60.60
2018-06-02T00:19:31.032Z,60.50
2018-06-02T00:21:58.557Z,60.60
2018-06-02T00:24:26.077Z,60.50
2018-06-02T00:26:53.571Z,60.50
2018-06-02T00:29:22.063Z,60.50
2018-06-02T00:31:49.588Z,60.60
2018-06-02T00:34:17.852Z,60.70
2018-06-02T00:36:45.379Z,60.60
2018-06-02T00:39:12.899Z,60.60
2018-06-02T00:41:40.430Z,60.70
2018-06-02T00:44:08.713Z,60.50
2018-06-02T00:46:36.988Z,60.60
2018-06-02T00:49:05.279Z,60.60
2018-06-02T00:51:32.818Z,60.60
2018-06-02T00:54:01.164Z,60.70
2018-06-02T00:56:28.687Z,60.60
2018-06-02T00:58:56.186Z,60.50
2018-06-02T01:01:23.708Z,60.20
2018-06-02T01:03:51.203Z,60.00
2018-06-02T01:06:20.667Z,60.00
2018-06-02T01:08:49.133Z,60.10
2018-06-02T01:11:16.636Z,60.00
2018-06-02T01:13:44.135Z,60.10
2018-06-02T01:16:11.668Z,60.20
2018-06-02T01:18:39.931Z,60.30
2018-06-02T01:21:07.458Z,60.30
2018-06-02T01:23:34.954Z,60.40
2018-06-02T01:26:02.511Z,60.50
2018-06-02T01:28:31.529Z,60.50
2018-06-02T01:30:59.808Z,60.40
2018-06-02T01:33:27.328Z,60.40
2018-06-02T01:35:54.832Z,60.50
2018-06-02T01:38:22.379Z,60.70
2018-06-02T01:40:49.876Z,60.60
2018-06-02T01:43:17.394Z,60.80
2018-06-02T01:45:44.901Z,60.90
2018-06-02T01:48:14.385Z,61.10
2018-06-02T01:50:41.895Z,60.90
2018-06-02T01:53:10.171Z,60.90
2018-06-02T01:55:38.487Z,60.90
2018-06-02T01:58:06.011Z,60.90
2018-06-02T02:00:34.279Z,61.00
2018-06-02T02:03:02.547Z,61.40
2018-06-02T02:05:30.831Z,61.40
2018-06-02T02:07:59.099Z,61.40
2018-06-02T02:10:27.397Z,61.50
2018-06-02T02:12:55.842Z,61.50
2018-06-02T02:15:23.377Z,61.50
2018-06-02T02:17:50.879Z,61.50
2018-06-02T02:20:18.424Z,61.60
2018-06-02T02:22:46.703Z,61.70
2018-06-02T02:25:14.996Z,61.90
2018-06-02T02:27:42.504Z,61.80
2018-06-02T02:30:10.000Z,61.90
2018-06-02T02:32:40.247Z,61.90
2018-06-02T02:35:07.765Z,61.90
2018-06-02T02:37:36.059Z,62.00
2018-06-02T02:40:04.343Z,62.00
2018-06-02T02:42:31.862Z,62.00
2018-06-02T02:45:00.878Z,61.90
2018-06-02T02:47:29.191Z,61.70
2018-06-02T02:49:56.678Z,61.70
2018-06-02T02:52:24.223Z,61.70
2018-06-02T02:54:51.725Z,61.70
2018-06-02T02:57:20.940Z,61.70
2018-06-02T02:59:48.479Z,61.70
2018-06-02T03:02:16.742Z,61.60
2018-06-02T03:04:45.078Z,61.70
2018-06-02T03:07:12.579Z,61.60
2018-06-02T03:09:40.862Z,61.80
2018-06-02T03:12:09.127Z,61.70
2018-06-02T03:14:39.401Z,61.70
2018-06-02T03:17:06.892Z,61.70
2018-06-02T03:19:34.405Z,61.70
2018-06-02T03:22:01.947Z,61.70
2018-06-02T03:24:29.451Z,61.60
2018-06-02T03:26:56.975Z,61.60
2018-06-02T03:29:24.468Z,61.50
2018-06-02T03:31:51.980Z,61.70
2018-06-02T03:34:19.488Z,61.70
2018-06-02T03:36:48.963Z,61.80
2018-06-02T03:39:16.458Z,61.60
2018-06-02T03:41:43.969Z,61.70
2018-06-02T03:44:13.495Z,61.80
2018-06-02T03:46:40.995Z,61.80
2018-06-02T03:49:09.334Z,62.20
2018-06-02T03:51:36.858Z,62.00
2018-06-02T03:54:04.386Z,62.00
2018-06-02T03:56:32.654Z,62.00
2018-06-02T03:59:00.939Z,62.00
2018-06-02T04:01:29.227Z,62.10
2018-06-02T04:03:56.740Z,62.00
2018-06-02T04:06:25.014Z,62.20
2018-06-02T04:08:53.285Z,62.20
2018-06-02T04:11:20.815Z,62.20
2018-06-02T04:13:48.326Z,62.10
2018-06-02T04:16:16.614Z,62.20
2018-06-02T04:18:44.115Z,62.20
2018-06-02T04:21:11.651Z,62.20
2018-06-02T04:23:39.155Z,62.20
2018-06-02T04:26:07.452Z,62.60
2018-06-02T04:28:35.720Z,62.50
2018-06-02T04:31:05.195Z,62.50
2018-06-02T04:33:32.725Z,62.50
2018-06-02T04:36:00.223Z,62.50
2018-06-02T04:38:30.479Z,62.80
2018-06-02T04:40:57.993Z,62.60
2018-06-02T04:43:25.527Z,62.70
2018-06-02T04:45:54.019Z,62.80
2018-06-02T04:48:21.540Z,62.90
2018-06-02T04:50:49.035Z,63.00
2018-06-02T04:53:16.568Z,63.20
2018-06-02T04:55:44.078Z,63.10
2018-06-02T04:58:12.355Z,63.20
2018-06-02T05:00:42.619Z,63.20
2018-06-02T05:03:10.120Z,63.20
2018-06-02T05:05:38.462Z,63.60
2018-06-02T05:08:05.961Z,63.40
2018-06-02T05:10:34.286Z,63.50
2018-06-02T05:13:01.787Z,63.30
2018-06-02T05:15:30.095Z,63.60
2018-06-02T05:17:57.590Z,63.60
2018-06-02T05:20:25.090Z,63.80
2018-06-02T05:22:53.377Z,63.90
2018-06-02T05:25:20.874Z,63.90
2018-06-02T05:27:48.395Z,63.80
2018-06-02T05:30:15.899Z,63.80
2018-06-02T05:32:43.414Z,63.90
2018-06-02T05:35:10.950Z,64.10
2018-06-02T05:37:39.248Z,64.10
2018-06-02T05:40:06.788Z,64.10
2018-06-02T05:42:35.053Z,64.00
2018-06-02T05:45:03.359Z,63.80
2018-06-02T05:47:30.860Z,63.70
2018-06-02T05:49:58.410Z,63.70
2018-06-02T05:52:26.707Z,63.50
2018-06-02T05:54:54.260Z,63.50
2018-06-02T05:57:22.528Z,63.20
2018-06-02T05:59:50.061Z,63.10
2018-06-02T06:02:17.576Z,63.10
2018-06-02T06:04:45.855Z,63.00
2018-06-02T06:07:14.147Z,63.20
2018-06-02T06:09:41.657Z,63.10
2018-06-02T06:12:09.185Z,63.10
2018-06-02T06:14:36.743Z,63.00
2018-06-02T06:17:06.228Z,63.20
2018-06-02T06:19:33.772Z,63.10
2018-06-02T06:22:01.318Z,63.10
2018-06-02T06:24:29.613Z,63.80
2018-06-02T06:26:57.203Z,63.30
2018-06-02T06:29:24.696Z,63.30
2018-06-02T06:31:52.203Z,63.30
2018-06-02T06:34:19.749Z,63.70
2018-06-02T06:36:47.259Z,63.70
2018-06-02T06:39:14.783Z,63.50
2018-06-02T06:41:42.284Z,63.70
2018-06-02T06:44:09.795Z,63.40
2018-06-02T06:46:37.363Z,63.30
2018-06-02T06:49:04.877Z,63.30
2018-06-02T06:51:32.392Z,63.20
2018-06-02T06:53:59.932Z,63.10
2018-06-02T06:56:27.456Z,63.00
2018-06-02T06:58:54.961Z,63.00
2018-06-02T07:01:22.470Z,62.90
2018-06-02T07:03:49.980Z,62.70
2018-06-02T07:06:17.503Z,62.70
2018-06-02T07:08:44.991Z,62.60
2018-06-02T07:11:12.502Z,62.50
2018-06-02T07:13:40.027Z,62.40
2018-06-02T07:16:07.559Z,62.40
2018-06-02T07:18:35.083Z,62.90
2018-06-02T07:21:02.578Z,62.10
2018-06-02T07:23:30.131Z,62.10
2018-06-02T07:25:57.647Z,62.10
2018-06-02T07:28:26.123Z,62.00
2018-06-02T07:30:53.643Z,61.90
2018-06-02T07:33:21.910Z,61.70
2018-06-02T07:35:49.430Z,61.80
2018-06-02T07:38:16.927Z,61.80
2018-06-02T07:40:46.936Z,61.70
2018-06-02T07:43:15.402Z,61.70
2018-06-02T07:45:42.933Z,61.60
2018-06-02T07:48:11.175Z,61.90
2018-06-02T07:50:39.462Z,61.50
2018-06-02T07:53:07.737Z,61.50
2018-06-02T07:55:35.261Z,61.50
2018-06-02T07:58:03.540Z,61.30
2018-06-02T08:00:31.810Z,61.30
2018-06-02T08:02:59.352Z,61.30
2018-06-02T08:05:27.660Z,61.30
2018-06-02T08:07:55.951Z,61.30
2018-06-02T08:10:24.455Z,61.20
2018-06-02T08:12:51.974Z,61.20
2018-06-02T08:15:20.239Z,61.40
2018-06-02T08:17:48.534Z,62.40
2018-06-02T08:20:16.814Z,61.30
2018-06-02T08:22:45.075Z,61.30
2018-06-02T08:25:13.360Z,61.00
2018-06-02T08:27:41.641Z,61.00
2018-06-02T08:30:09.170Z,61.00
2018-06-02T08:32:36.704Z,61.00
2018-06-02T08:35:04.194Z,60.90
2018-06-02T08:37:32.484Z,60.90
2018-06-02T08:40:00.747Z,60.90
2018-06-02T08:42:29.048Z,60.80
2018-06-02T08:44:56.555Z,60.80
2018-06-02T08:47:24.079Z,60.80
2018-06-02T08:49:52.547Z,60.80
2018-06-02T08:52:22.063Z,61.00
2018-06-02T08:54:49.562Z,61.00
2018-06-02T08:57:18.796Z,61.40
2018-06-02T08:59:48.322Z,61.50
2018-06-02T09:02:15.915Z,61.50
2018-06-02T09:04:43.439Z,61.40
2018-06-02T09:07:10.935Z,61.40
2018-06-02T09:09:39.238Z,61.10
2018-06-02T09:12:06.742Z,61.20
2018-06-02T09:14:34.258Z,61.20
2018-06-02T09:17:01.758Z,61.20
2018-06-02T09:19:29.255Z,61.40
2018-06-02T09:21:57.536Z,61.30
2018-06-02T09:24:26.767Z,61.20
2018-06-02T09:26:54.283Z,61.20
2018-06-02T09:29:22.543Z,61.20
2018-06-02T09:31:52.007Z,61.20
2018-06-02T09:34:19.731Z,61.20
2018-06-02T09:36:47.224Z,61.10
2018-06-02T09:39:14.746Z,61.90
2018-06-02T09:41:44.005Z,61.10
2018-06-02T09:44:11.523Z,61.10
2018-06-02T09:46:39.020Z,61.00
2018-06-02T09:49:06.543Z,61.00
2018-06-02T09:51:34.075Z,60.80
2018-06-02T09:54:02.337Z,60.80
2018-06-02T09:56:30.631Z,60.80
2018-06-02T09:58:58.130Z,60.80
2018-06-02T10:01:25.666Z,60.90
2018-06-02T10:03:54.123Z,61.00
2018-06-02T10:06:22.409Z,61.20
2018-06-02T10:08:49.920Z,61.30
2018-06-02T10:11:20.211Z,61.20
2018-06-02T10:13:47.735Z,61.30
2018-06-02T10:16:16.028Z,61.10
2018-06-02T10:18:43.540Z,61.10
2018-06-02T10:21:11.810Z,61.10
2018-06-02T10:23:40.835Z,61.00
2018-06-02T10:26:09.096Z,61.00
2018-06-02T10:28:37.394Z,60.80
2018-06-02T10:31:06.909Z,60.80
2018-06-02T10:33:34.408Z,61.50
2018-06-02T10:36:01.935Z,60.80
2018-06-02T10:38:29.467Z,60.70
2018-06-02T10:40:56.964Z,60.70
2018-06-02T10:43:25.444Z,60.80
2018-06-02T10:45:52.968Z,60.80
2018-06-02T10:48:20.471Z,60.70
2018-06-02T10:50:48.017Z,60.70
2018-06-02T10:53:15.549Z,60.70
2018-06-02T10:55:43.183Z,60.70
2018-06-02T10:58:11.793Z,60.80
2018-06-02T11:00:39.498Z,60.80
2018-06-02T11:03:07.001Z,60.80
2018-06-02T11:05:34.534Z,60.90
2018-06-02T11:08:02.838Z,60.80
2018-06-02T11:10:30.330Z,60.80
2018-06-02T11:12:57.861Z,60.70
2018-06-02T11:15:25.359Z,60.70
2018-06-02T11:17:53.643Z,60.60
2018-06-02T11:20:21.147Z,60.60
2018-06-02T11:22:48.676Z,60.60
2018-06-02T11:25:17.892Z,60.50
2018-06-02T11:27:45.396Z,60.50
2018-06-02T11:30:12.916Z,60.50
2018-06-02T11:32:40.445Z,60.40
2018-06-02T11:35:08.734Z,60.40
2018-06-02T11:37:36.243Z,60.40
2018-06-02T11:40:03.763Z,60.40
2018-06-02T11:42:31.266Z,60.40
2018-06-02T11:44:59.554Z,60.40
2018-06-02T11:47:27.848Z,61.30
2018-06-02T11:49:55.783Z,60.50
2018-06-02T11:52:23.602Z,60.50
2018-06-02T11:54:51.471Z,60.50
2018-06-02T11:57:19.333Z,60.40
2018-06-02T11:59:47.004Z,60.50
2018-06-02T12:02:14.795Z,60.50
2018-06-02T12:04:43.439Z,60.40
2018-06-02T12:07:11.205Z,60.40
2018-06-02T12:09:39.172Z,60.40
2018-06-02T12:12:07.038Z,60.40
2018-06-02T12:14:35.622Z,60.40
2018-06-02T12:17:06.048Z,60.40
2018-06-02T12:19:35.040Z,60.40
2018-06-02T12:22:02.813Z,60.30
2018-06-02T12:24:30.409Z,60.30
2018-06-02T12:26:58.786Z,60.40
2018-06-02T12:29:27.148Z,60.80
2018-06-02T12:31:55.799Z,60.30
2018-06-02T12:34:23.380Z,60.30
2018-06-02T12:36:50.917Z,60.30
2018-06-02T12:39:18.443Z,60.30
2018-06-02T12:41:46.771Z,60.50
2018-06-02T12:44:14.289Z,60.50
2018-06-02T12:46:41.799Z,60.50
2018-06-02T12:49:09.638Z,60.40
2018-06-02T12:51:37.314Z,60.30
2018-06-02T12:54:06.771Z,60.30
2018-06-02T12:56:34.656Z,60.50
2018-06-02T12:59:02.370Z,60.40
2018-06-02T13:01:31.001Z,60.50
2018-06-02T13:03:59.890Z,60.40
2018-06-02T13:06:27.689Z,60.40
2018-06-02T13:08:56.056Z,60.30
2018-06-02T13:11:23.632Z,60.30
2018-06-02T13:13:52.096Z,60.30
2018-06-02T13:16:19.638Z,60.30
2018-06-02T13:18:47.389Z,60.30
2018-06-02T13:21:15.239Z,60.30
2018-06-02T13:23:44.681Z,60.30
2018-06-02T13:26:12.255Z,60.20
2018-06-02T13:28:39.853Z,60.20
2018-06-02T13:31:07.744Z,60.20
2018-06-02T13:33:35.309Z,60.20
2018-06-02T13:36:02.874Z,60.20
2018-06-02T13:38:31.313Z,60.20
2018-06-02T13:40:59.601Z,60.20
2018-06-02T13:43:27.103Z,60.20
2018-06-02T13:45:54.621Z,60.20
2018-06-02T13:48:22.126Z,60.20
2018-06-02T13:50:49.640Z,60.30
2018-06-02T13:53:17.140Z,60.30
2018-06-02T13:55:45.437Z,60.40
2018-06-02T13:58:13.719Z,60.50
2018-06-02T14:00:41.975Z,60.50
2018-06-02T14:03:09.522Z,60.40
2018-06-02T14:05:37.798Z,60.50
2018-06-02T14:08:05.320Z,60.50
2018-06-02T14:10:33.786Z,60.50
2018-06-02T14:13:01.313Z,59.90
2018-06-02T14:15:29.580Z,60.60
2018-06-02T14:17:57.846Z,60.60
2018-06-02T14:20:26.134Z,60.60
2018-06-02T14:22:53.631Z,60.70
2018-06-02T14:25:21.162Z,60.50
2018-06-02T14:27:48.663Z,60.50
2018-06-02T14:30:16.191Z,60.60
2018-06-02T14:32:43.718Z,60.60
2018-06-02T14:35:12.025Z,60.60
2018-06-02T14:37:39.527Z,60.60
2018-06-02T14:40:07.061Z,60.60
2018-06-02T14:42:34.553Z,60.60
2018-06-02T14:45:03.551Z,60.60
2018-06-02T14:47:31.062Z,60.60
2018-06-02T14:49:58.570Z,60.50
2018-06-02T14:52:26.090Z,60.60
2018-06-02T14:54:53.634Z,60.60
2018-06-02T14:57:21.878Z,60.70
2018-06-02T14:59:50.150Z,60.70
2018-06-02T15:02:18.455Z,60.70
2018-06-02T15:04:45.976Z,60.60
2018-06-02T15:07:14.260Z,60.70
2018-06-02T15:09:41.773Z,60.70
2018-06-02T15:12:11.231Z,60.70
2018-06-02T15:14:38.740Z,60.70
2018-06-02T15:17:07.006Z,61.00
2018-06-02T15:19:34.529Z,60.80
2018-06-02T15:22:02.027Z,60.70
2018-06-02T15:24:30.313Z,61.40
2018-06-02T15:26:59.319Z,60.70
2018-06-02T15:29:28.828Z,60.60
2018-06-02T15:31:57.099Z,60.60
2018-06-02T15:34:27.348Z,60.60
2018-06-02T15:36:54.856Z,60.60
2018-06-02T15:39:22.359Z,60.60
2018-06-02T15:41:49.896Z,60.60
2018-06-02T15:44:18.152Z,60.50
2018-06-02T15:46:46.438Z,59.30
2018-06-02T15:49:14.711Z,58.90
2018-06-02T15:51:43.008Z,58.60
2018-06-02T15:54:10.510Z,58.60
2018-06-02T15:56:38.036Z,58.40
2018-06-02T15:59:05.535Z,58.40
2018-06-02T16:01:33.084Z,58.30
2018-06-02T16:04:00.589Z,58.40
2018-06-02T16:06:28.856Z,58.50
2018-06-02T16:08:57.143Z,57.20
2018-06-02T16:11:25.415Z,56.90
2018-06-02T16:13:53.696Z,56.90
2018-06-02T16:16:21.191Z,56.80
2018-06-02T16:18:48.699Z,56.80
2018-06-02T16:21:16.955Z,56.80
2018-06-02T16:23:44.476Z,56.80
2018-06-02T16:26:11.974Z,56.60
2018-06-02T16:28:41.447Z,56.50
2018-06-02T16:31:08.948Z,56.80
2018-06-02T16:33:37.215Z,56.70
2018-06-02T16:36:05.513Z,57.00
2018-06-02T16:38:33.011Z,57.00
2018-06-02T16:41:00.531Z,56.70
2018-06-02T16:43:28.025Z,57.00
2018-06-02T16:45:56.300Z,56.60
2018-06-02T16:48:23.811Z,56.70
2018-06-02T16:50:52.248Z,57.30
2018-06-02T16:53:21.259Z,57.20
2018-06-02T16:55:49.519Z,57.40
2018-06-02T16:58:17.044Z,57.20
2018-06-02T17:00:45.482Z,57.90
2018-06-02T17:03:13.776Z,57.60
2018-06-02T17:05:41.279Z,57.60
2018-06-02T17:08:08.827Z,57.70
2018-06-02T17:10:36.363Z,58.40
2018-06-02T17:13:03.922Z,58.10
2018-06-02T17:15:31.443Z,58.40
2018-06-02T17:17:59.775Z,58.00
2018-06-02T17:20:28.287Z,58.00
2018-06-02T17:22:55.816Z,58.00
2018-06-02T17:25:24.269Z,58.50
2018-06-02T17:27:51.804Z,57.70
2018-06-02T17:30:20.082Z,57.50
2018-06-02T17:32:50.322Z,57.40
2018-06-02T17:35:17.831Z,57.40
2018-06-02T17:37:46.128Z,57.40
2018-06-02T17:40:14.421Z,57.40
2018-06-02T17:42:41.929Z,57.40
2018-06-02T17:45:09.458Z,57.30
2018-06-02T17:47:36.977Z,58.00
2018-06-02T17:50:05.286Z,57.30
2018-06-02T17:52:32.823Z,57.30
2018-06-02T17:55:01.338Z,57.20
2018-06-02T17:57:28.863Z,57.20
2018-06-02T17:59:56.381Z,57.30
2018-06-02T18:02:24.689Z,57.20
2018-06-02T18:04:52.212Z,57.20
2018-06-02T18:07:19.812Z,57.30
2018-06-02T18:09:47.331Z,57.30
2018-06-02T18:12:14.885Z,57.20
2018-06-02T18:14:42.418Z,57.20
2018-06-02T18:17:09.943Z,57.20
2018-06-02T18:19:37.486Z,57.10
2018-06-02T18:22:05.758Z,57.10
2018-06-02T18:24:34.051Z,57.00
2018-06-02T18:27:03.564Z,57.00
2018-06-02T18:29:33.079Z,57.10
2018-06-02T18:32:00.599Z,57.00
2018-06-02T18:34:28.875Z,57.00
2018-06-02T18:36:57.175Z,57.00
2018-06-02T18:39:24.703Z,57.00
2018-06-02T18:41:53.963Z,57.00
2018-06-02T18:44:21.512Z,57.00
2018-06-02T18:46:49.086Z,57.00
2018-06-02T18:49:16.603Z,57.00
2018-06-02T18:51:44.116Z,57.00
2018-06-02T18:54:13.155Z,57.00
2018-06-02T18:56:42.671Z,57.00
2018-06-02T18:59:10.163Z,57.00
2018-06-02T19:01:37.683Z,57.00
2018-06-02T19:04:05.216Z,57.00
2018-06-02T19:06:33.699Z,57.00
2018-06-02T19:09:01.227Z,57.00
2018-06-02T19:11:28.722Z,56.90
2018-06-02T19:13:56.262Z,57.00
2018-06-02T19:16:25.508Z,56.90
2018-06-02T19:18:53.011Z,56.90
2018-06-02T19:21:21.303Z,56.90
2018-06-02T19:23:48.810Z,56.90
2018-06-02T19:26:16.340Z,57.00
2018-06-02T19:28:43.844Z,57.00
2018-06-02T19:31:12.160Z,57.00
2018-06-02T19:33:39.672Z,57.00
2018-06-02T19:36:07.207Z,57.00
2018-06-02T19:38:34.717Z,57.00
2018-06-02T19:41:02.266Z,57.30
2018-06-02T19:43:31.278Z,56.90
2018-06-02T19:45:58.779Z,56.90
2018-06-02T19:48:26.330Z,57.00
2018-06-02T19:50:53.851Z,57.10
2018-06-02T19:53:22.432Z,57.70
2018-06-02T19:55:49.934Z,57.50
2018-06-02T19:58:17.863Z,57.10
2018-06-02T20:00:46.453Z,57.10
2018-06-02T20:03:14.996Z,57.10
2018-06-02T20:05:43.368Z,57.10
2018-06-02T20:08:12.488Z,57.10
2018-06-02T20:10:40.364Z,57.10
2018-06-02T20:13:07.940Z,57.20
2018-06-02T20:15:37.443Z,57.20
2018-06-02T20:18:05.935Z,57.30
2018-06-02T20:20:33.439Z,57.30
2018-06-02T20:23:01.732Z,57.40
2018-06-02T20:25:29.234Z,57.30
2018-06-02T20:27:56.751Z,57.30
2018-06-02T20:30:24.266Z,57.20
2018-06-02T20:32:51.793Z,57.40
2018-06-02T20:35:19.301Z,57.40
2018-06-02T20:37:46.831Z,57.40
2018-06-02T20:40:14.341Z,57.50
2018-06-02T20:42:41.845Z,57.50
2018-06-02T20:45:09.370Z,57.60
2018-06-02T20:47:37.829Z,57.50
2018-06-02T20:50:05.358Z,57.40
2018-06-02T20:52:33.627Z,57.50
2018-06-02T20:55:01.911Z,58.20
2018-06-02T20:57:30.178Z,57.50
2018-06-02T20:59:58.459Z,57.50
2018-06-02T21:02:26.750Z,57.40
2018-06-02T21:04:55.207Z,57.30
2018-06-02T21:07:23.499Z,57.40
2018-06-02T21:09:51.002Z,57.40
2018-06-02T21:12:20.468Z,57.40
2018-06-02T21:14:47.968Z,57.40
2018-06-02T21:17:15.464Z,57.40
2018-06-02T21:19:43.755Z,57.40
2018-06-02T21:22:11.297Z,58.00
2018-06-02T21:24:39.596Z,57.30
2018-06-02T21:27:07.119Z,57.40
2018-06-02T21:29:35.415Z,57.40
2018-06-02T21:32:02.929Z,57.40
2018-06-02T21:34:31.935Z,57.40
2018-06-02T21:36:59.501Z,57.40
2018-06-02T21:39:27.777Z,57.30
2018-06-02T21:41:56.067Z,57.30
2018-06-02T21:44:24.354Z,57.30
2018-06-02T21:46:51.889Z,57.30
2018-06-02T21:49:20.157Z,57.20
2018-06-02T21:51:48.443Z,57.20
2018-06-02T21:54:16.808Z,57.10
2018-06-02T21:56:44.354Z,57.10
2018-06-02T21:59:12.537Z,57.10
2018-06-02T22:01:40.108Z,57.10
2018-06-02T22:04:08.827Z,57.10
2018-06-02T22:06:36.384Z,57.00
2018-06-02T22:09:03.898Z,57.00
2018-06-02T22:11:32.364Z,57.00
2018-06-02T22:14:00.699Z,57.00
2018-06-02T22:16:28.232Z,56.90
2018-06-02T22:18:57.426Z,56.90
2018-06-02T22:21:25.102Z,56.90
2018-06-02T22:23:52.763Z,56.80
2018-06-02T22:26:20.288Z,56.80
2018-06-02T22:28:48.597Z,56.80
2018-06-02T22:31:17.290Z,56.80
2018-06-02T22:33:46.078Z,56.80
2018-06-02T22:36:13.606Z,56.80
2018-06-02T22:38:42.082Z,56.70
2018-06-02T22:41:10.357Z,56.70
2018-06-02T22:43:40.571Z,56.70
2018-06-02T22:46:09.819Z,56.70
2018-06-02T22:48:37.316Z,56.70
2018-06-02T22:51:05.609Z,56.70
2018-06-02T22:53:33.869Z,56.60
2018-06-02T22:56:01.392Z,56.60
2018-06-02T22:58:29.883Z,57.30
2018-06-02T23:00:57.443Z,56.60
2018-06-02T23:03:25.880Z,56.60
2018-06-02T23:05:53.451Z,56.50
2018-06-02T23:08:20.973Z,56.60
2018-06-02T23:10:49.244Z,56.60
2018-06-02T23:13:17.523Z,56.50
2018-06-02T23:15:45.813Z,56.30
2018-06-02T23:18:13.344Z,56.30
2018-06-02T23:20:40.846Z,56.30
2018-06-02T23:23:08.370Z,56.20
2018-06-02T23:25:36.637Z,56.00
2018-06-02T23:28:04.928Z,55.20
2018-06-02T23:30:33.195Z,54.10
2018-06-02T23:33:01.635Z,53.70
2018-06-02T23:35:29.131Z,53.70
2018-06-02T23:37:57.426Z,53.60
2018-06-02T23:40:24.922Z,53.50
2018-06-02T23:42:52.471Z,53.50
2018-06-02T23:45:19.947Z,53.30
2018-06-02T23:47:47.442Z,53.30
2018-06-02T23:50:15.719Z,53.20
2018-06-02T23:52:43.220Z,53.20
2018-06-02T23:55:12.683Z,53.40
2018-06-02T23:57:40.192Z,53.20
